createdAt,value
2018-12-30T00:01:43.337Z,7.88
2018-12-30T00:04:12.012Z,7.90
2018-12-30T00:06:40.739Z,7.92
2018-12-30T00:09:09.623Z,7.95
2018-12-30T00:11:38.562Z,7.95
2018-12-30T00:14:07.033Z,7.98
2018-12-30T00:16:35.499Z,7.98
2018-12-30T00:19:03.945Z,7.99
2018-12-30T00:21:32.413Z,8.00
2018-12-30T00:24:00.857Z,8.00
2018-12-30T00:26:29.345Z,8.01
2018-12-30T00:28:58.170Z,8.02
2018-12-30T00:31:26.652Z,8.02
2018-12-30T00:33:55.093Z,8.03
2018-12-30T00:36:23.563Z,8.06
2018-12-30T00:38:52.037Z,8.07
2018-12-30T00:41:20.514Z,8.07
2018-12-30T00:43:49.211Z,8.09
2018-12-30T00:46:17.690Z,8.09
2018-12-30T00:48:46.127Z,8.10
2018-12-30T00:51:17.199Z,8.09
2018-12-30T00:53:44.866Z,8.11
2018-12-30T00:56:13.333Z,8.10
2018-12-30T00:58:41.959Z,8.09
2018-12-30T01:01:10.441Z,8.09
2018-12-30T01:03:38.875Z,8.09
2018-12-30T01:06:07.429Z,8.11
2018-12-30T01:08:35.869Z,8.11
2018-12-30T01:11:04.588Z,8.12
2018-12-30T01:13:33.035Z,8.13
2018-12-30T01:16:01.511Z,8.13
2018-12-30T01:18:29.954Z,8.16
2018-12-30T01:20:58.824Z,8.15
2018-12-30T01:23:27.264Z,8.16
2018-12-30T01:25:56.091Z,8.16
2018-12-30T01:28:24.564Z,8.17
2018-12-30T01:30:53.128Z,8.18
2018-12-30T01:33:21.593Z,8.19
2018-12-30T01:35:50.040Z,8.21
2018-12-30T01:38:18.509Z,8.22
2018-12-30T01:40:46.943Z,8.24
2018-12-30T01:43:15.406Z,8.25
2018-12-30T01:45:43.849Z,8.26
2018-12-30T01:48:12.311Z,8.27
2018-12-30T01:50:40.748Z,8.27
2018-12-30T01:53:09.595Z,8.28
2018-12-30T01:55:38.149Z,8.29
2018-12-30T01:58:06.619Z,8.30
2018-12-30T02:00:35.062Z,8.31
2018-12-30T02:03:03.531Z,8.34
2018-12-30T02:05:32.254Z,8.35
2018-12-30T02:08:00.722Z,8.36
2018-12-30T02:10:29.381Z,8.37
2018-12-30T02:12:57.850Z,8.41
2018-12-30T02:15:26.295Z,8.41
2018-12-30T02:17:54.760Z,8.43
2018-12-30T02:20:23.202Z,8.43
2018-12-30T02:22:51.707Z,8.46
2018-12-30T02:25:20.169Z,8.47
2018-12-30T02:27:48.610Z,8.49
2018-12-30T02:30:17.070Z,8.48
2018-12-30T02:32:45.510Z,8.52
2018-12-30T02:35:13.969Z,8.51
2018-12-30T02:37:42.410Z,8.53
2018-12-30T02:40:10.872Z,8.55
2018-12-30T02:42:39.332Z,8.54
2018-12-30T02:45:07.960Z,8.57
2018-12-30T02:47:36.401Z,8.57
2018-12-30T02:50:06.216Z,8.60
2018-12-30T02:52:34.655Z,8.60
2018-12-30T02:55:03.289Z,8.62
2018-12-30T02:57:31.730Z,8.64
2018-12-30T03:00:00.303Z,8.65
2018-12-30T03:02:28.809Z,8.67
2018-12-30T03:04:57.270Z,8.68
2018-12-30T03:07:25.715Z,8.69
2018-12-30T03:09:54.177Z,8.70
2018-12-30T03:12:22.624Z,8.70
2018-12-30T03:14:51.081Z,8.72
2018-12-30T03:17:19.520Z,8.74
2018-12-30T03:19:47.984Z,8.74
2018-12-30T03:22:16.424Z,8.75
2018-12-30T03:24:44.864Z,8.76
2018-12-30T03:27:13.333Z,8.76
2018-12-30T03:29:41.775Z,8.77
2018-12-30T03:32:10.244Z,8.77
2018-12-30T03:34:38.680Z,8.77
2018-12-30T03:37:07.148Z,8.77
2018-12-30T03:39:35.591Z,8.78
2018-12-30T03:42:04.075Z,8.78
2018-12-30T03:44:32.488Z,8.79
2018-12-30T03:47:00.952Z,8.79
2018-12-30T03:49:29.400Z,8.79
2018-12-30T03:51:57.857Z,8.79
2018-12-30T03:54:26.297Z,8.80
2018-12-30T03:56:54.764Z,8.80
2018-12-30T03:59:23.199Z,8.80
2018-12-30T04:01:51.659Z,8.81
2018-12-30T04:04:20.106Z,8.81
2018-12-30T04:06:48.565Z,8.82
2018-12-30T04:09:17.011Z,8.82
2018-12-30T04:11:45.477Z,8.83
2018-12-30T04:14:13.915Z,8.82
2018-12-30T04:16:42.382Z,8.80
2018-12-30T04:19:10.823Z,8.77
2018-12-30T04:21:39.336Z,8.72
2018-12-30T04:24:07.913Z,8.68
2018-12-30T04:26:36.351Z,8.64
2018-12-30T04:29:04.819Z,8.59
2018-12-30T04:31:33.255Z,8.56
2018-12-30T04:34:01.720Z,8.50
2018-12-30T04:36:30.162Z,8.42
2018-12-30T04:38:58.625Z,8.36
2018-12-30T04:41:27.061Z,8.27
2018-12-30T04:43:55.524Z,8.22
2018-12-30T04:46:23.960Z,8.17
2018-12-30T04:48:52.423Z,8.12
2018-12-30T04:51:20.860Z,8.05
2018-12-30T04:53:49.381Z,7.98
2018-12-30T04:56:17.764Z,7.90
2018-12-30T04:58:46.224Z,7.82
2018-12-30T05:01:14.662Z,7.76
2018-12-30T05:03:43.124Z,7.71
2018-12-30T05:06:11.564Z,7.66
2018-12-30T05:08:40.024Z,7.61
2018-12-30T05:11:08.461Z,7.58
2018-12-30T05:13:36.921Z,7.54
2018-12-30T05:16:05.363Z,7.52
2018-12-30T05:18:33.831Z,7.51
2018-12-30T05:21:02.269Z,7.49
2018-12-30T05:23:30.735Z,7.46
2018-12-30T05:25:59.172Z,7.45
2018-12-30T05:28:27.643Z,7.43
2018-12-30T05:30:56.079Z,7.41
2018-12-30T05:33:24.546Z,7.39
2018-12-30T05:35:52.985Z,7.36
2018-12-30T05:38:21.491Z,7.33
2018-12-30T05:40:49.927Z,7.32
2018-12-30T05:43:18.395Z,7.28
2018-12-30T05:45:46.828Z,7.23
2018-12-30T05:48:15.267Z,7.20
2018-12-30T05:50:43.733Z,7.17
2018-12-30T05:53:12.167Z,7.15
2018-12-30T05:55:40.633Z,7.13
2018-12-30T05:58:09.072Z,7.10
2018-12-30T06:00:37.536Z,7.07
2018-12-30T06:03:05.980Z,7.06
2018-12-30T06:05:34.511Z,7.05
2018-12-30T06:08:02.949Z,7.04
2018-12-30T06:10:31.415Z,7.04
2018-12-30T06:12:59.855Z,7.03
2018-12-30T06:15:28.316Z,7.02
2018-12-30T06:17:56.757Z,7.00
2018-12-30T06:20:25.584Z,7.00
2018-12-30T06:22:54.025Z,7.02
2018-12-30T06:25:22.490Z,7.00
2018-12-30T06:27:50.927Z,7.00
2018-12-30T06:30:19.389Z,6.98
2018-12-30T06:32:47.829Z,6.98
2018-12-30T06:35:16.296Z,6.95
2018-12-30T06:37:44.906Z,6.94
2018-12-30T06:40:13.373Z,6.91
2018-12-30T06:42:41.814Z,6.89
2018-12-30T06:45:10.273Z,6.86
2018-12-30T06:47:38.712Z,6.82
2018-12-30T06:50:07.438Z,6.79
2018-12-30T06:52:35.950Z,6.76
2018-12-30T06:55:04.629Z,6.74
2018-12-30T06:57:33.092Z,6.71
2018-12-30T07:00:01.538Z,6.67
2018-12-30T07:02:30.004Z,6.62
2018-12-30T07:04:58.440Z,6.58
2018-12-30T07:07:26.910Z,6.55
2018-12-30T07:09:55.344Z,6.51
2018-12-30T07:12:23.812Z,6.47
2018-12-30T07:14:52.248Z,6.45
2018-12-30T07:17:20.712Z,6.43
2018-12-30T07:19:49.194Z,6.41
2018-12-30T07:22:17.657Z,6.39
2018-12-30T07:24:46.091Z,6.37
2018-12-30T07:27:14.556Z,6.34
2018-12-30T07:29:42.995Z,6.33
2018-12-30T07:32:11.459Z,6.31
2018-12-30T07:34:39.900Z,6.31
2018-12-30T07:37:08.356Z,6.28
2018-12-30T07:39:36.798Z,6.28
2018-12-30T07:42:05.259Z,6.28
2018-12-30T07:44:33.699Z,6.29
2018-12-30T07:47:02.160Z,6.28
2018-12-30T07:49:30.600Z,6.29
2018-12-30T07:51:59.070Z,6.29
2018-12-30T07:54:27.503Z,6.28
2018-12-30T07:56:55.941Z,6.27
2018-12-30T07:59:24.405Z,6.26
2018-12-30T08:01:52.841Z,6.27
2018-12-30T08:04:21.303Z,6.27
2018-12-30T08:06:49.748Z,6.28
2018-12-30T08:09:18.251Z,6.28
2018-12-30T08:11:46.694Z,6.28
2018-12-30T08:14:15.149Z,6.29
2018-12-30T08:16:43.583Z,6.28
2018-12-30T08:19:12.043Z,6.30
2018-12-30T08:21:40.483Z,6.31
2018-12-30T08:24:12.184Z,6.33
2018-12-30T08:26:40.617Z,6.36
2018-12-30T08:29:09.076Z,6.36
2018-12-30T08:31:37.521Z,6.37
2018-12-30T08:34:05.984Z,6.36
2018-12-30T08:36:34.429Z,6.36
2018-12-30T08:39:03.261Z,6.35
2018-12-30T08:41:31.699Z,6.36
2018-12-30T08:44:00.163Z,6.37
2018-12-30T08:46:28.605Z,6.37
2018-12-30T08:48:57.448Z,6.36
2018-12-30T08:51:27.325Z,6.35
2018-12-30T08:53:55.765Z,6.34
2018-12-30T08:56:24.229Z,6.35
2018-12-30T08:58:52.668Z,6.34
2018-12-30T09:01:28.225Z,6.35
2018-12-30T09:03:51.296Z,6.38
2018-12-30T09:06:19.756Z,6.38
2018-12-30T09:08:48.201Z,6.41
2018-12-30T09:11:16.669Z,6.42
2018-12-30T09:13:45.110Z,6.43
2018-12-30T09:16:13.577Z,6.46
2018-12-30T09:18:42.017Z,6.47
2018-12-30T09:21:10.480Z,6.50
2018-12-30T09:23:38.917Z,6.53
2018-12-30T09:26:07.381Z,6.54
2018-12-30T09:28:35.816Z,6.56
2018-12-30T09:31:04.283Z,6.59
2018-12-30T09:33:32.720Z,6.62
2018-12-30T09:36:01.183Z,6.64
2018-12-30T09:38:29.632Z,6.67
2018-12-30T09:40:58.092Z,6.68
2018-12-30T09:43:26.536Z,6.71
2018-12-30T09:45:54.998Z,6.74
2018-12-30T09:48:23.437Z,6.74
2018-12-30T09:50:51.899Z,6.76
2018-12-30T09:53:20.344Z,6.78
2018-12-30T09:55:48.812Z,6.81
2018-12-30T09:58:17.252Z,6.84
2018-12-30T10:00:47.509Z,6.87
2018-12-30T10:03:16.039Z,6.91
2018-12-30T10:05:44.475Z,6.94
2018-12-30T10:08:12.949Z,6.96
2018-12-30T10:10:41.390Z,6.96
2018-12-30T10:13:09.861Z,6.96
2018-12-30T10:15:38.301Z,6.97
2018-12-30T10:18:06.765Z,6.99
2018-12-30T10:20:35.199Z,7.00
2018-12-30T10:23:03.660Z,7.01
2018-12-30T10:25:32.109Z,7.03
2018-12-30T10:28:00.573Z,7.05
2018-12-30T10:30:29.042Z,7.07
2018-12-30T10:32:57.508Z,7.10
2018-12-30T10:35:25.949Z,7.12
2018-12-30T10:37:54.415Z,7.14
2018-12-30T10:40:22.860Z,7.17
2018-12-30T10:42:51.324Z,7.20
2018-12-30T10:45:19.766Z,7.22
2018-12-30T10:47:48.233Z,7.25
2018-12-30T10:50:16.670Z,7.27
2018-12-30T10:52:45.131Z,7.29
2018-12-30T10:55:13.578Z,7.32
2018-12-30T10:57:42.040Z,7.35
2018-12-30T11:00:10.481Z,7.37
2018-12-30T11:02:39.013Z,7.40
2018-12-30T11:05:07.522Z,7.42
2018-12-30T11:07:35.961Z,7.45
2018-12-30T11:10:05.264Z,7.50
2018-12-30T11:12:33.705Z,7.54
2018-12-30T11:15:02.169Z,7.60
2018-12-30T11:17:30.613Z,7.63
2018-12-30T11:19:59.084Z,7.67
2018-12-30T11:22:27.701Z,7.67
2018-12-30T11:24:56.164Z,7.70
2018-12-30T11:27:24.605Z,7.73
2018-12-30T11:29:53.067Z,7.77
2018-12-30T11:32:22.076Z,7.78
2018-12-30T11:34:50.545Z,7.79
2018-12-30T11:37:18.985Z,7.82
2018-12-30T11:39:47.453Z,7.83
2018-12-30T11:42:15.892Z,7.86
2018-12-30T11:44:44.357Z,7.88
2018-12-30T11:47:12.798Z,7.88
2018-12-30T11:49:41.266Z,7.89
2018-12-30T11:52:09.705Z,7.92
2018-12-30T11:54:38.173Z,7.97
2018-12-30T11:57:06.689Z,7.99
2018-12-30T11:59:35.152Z,8.03
2018-12-30T12:02:03.761Z,8.05
2018-12-30T12:04:32.230Z,8.07
2018-12-30T12:07:00.668Z,8.09
2018-12-30T12:09:29.199Z,8.10
2018-12-30T12:11:57.634Z,8.12
2018-12-30T12:14:26.070Z,8.15
2018-12-30T12:16:54.535Z,8.17
2018-12-30T12:19:22.972Z,8.18
2018-12-30T12:21:51.435Z,8.20
2018-12-30T12:24:24.220Z,8.20
2018-12-30T12:26:50.077Z,8.17
2018-12-30T12:29:18.516Z,8.17
2018-12-30T12:31:46.982Z,8.16
2018-12-30T12:34:15.421Z,8.15
2018-12-30T12:36:43.880Z,8.13
2018-12-30T12:39:12.315Z,8.13
2018-12-30T12:41:40.780Z,8.10
2018-12-30T12:44:09.221Z,8.06
2018-12-30T12:46:37.700Z,8.06
2018-12-30T12:49:06.135Z,8.04
2018-12-30T12:51:34.607Z,8.03
2018-12-30T12:54:03.061Z,8.02
2018-12-30T12:56:31.521Z,8.02
2018-12-30T12:58:59.963Z,8.03
2018-12-30T13:01:28.426Z,8.02
2018-12-30T13:03:57.426Z,8.03
2018-12-30T13:06:25.892Z,8.02
2018-12-30T13:08:54.338Z,8.00
2018-12-30T13:11:22.805Z,8.00
2018-12-30T13:13:51.251Z,7.99
2018-12-30T13:16:19.744Z,7.96
2018-12-30T13:18:48.246Z,7.94
2018-12-30T13:21:16.688Z,7.92
2018-12-30T13:23:45.148Z,7.91
2018-12-30T13:26:13.590Z,7.91
2018-12-30T13:28:42.057Z,7.91
2018-12-30T13:31:10.606Z,7.91
2018-12-30T13:33:39.076Z,7.90
2018-12-30T13:36:09.961Z,7.89
2018-12-30T13:38:38.434Z,7.87
2018-12-30T13:41:06.876Z,7.84
2018-12-30T13:43:35.341Z,7.83
2018-12-30T13:46:03.780Z,7.81
2018-12-30T13:48:32.245Z,7.82
2018-12-30T13:51:00.687Z,7.78
2018-12-30T13:53:29.436Z,7.78
2018-12-30T13:55:59.556Z,7.76
2018-12-30T13:58:28.025Z,7.75
2018-12-30T14:00:56.465Z,7.74
2018-12-30T14:03:24.941Z,7.73
2018-12-30T14:05:53.376Z,7.72
2018-12-30T14:08:21.845Z,7.71
2018-12-30T14:10:50.287Z,7.70
2018-12-30T14:13:18.752Z,7.68
2018-12-30T14:15:51.069Z,7.66
2018-12-30T14:18:17.385Z,7.63
2018-12-30T14:20:45.823Z,7.63
2018-12-30T14:23:14.261Z,7.60
2018-12-30T14:25:42.729Z,7.61
2018-12-30T14:28:11.172Z,7.60
2018-12-30T14:30:39.637Z,7.60
2018-12-30T14:33:08.076Z,7.59
2018-12-30T14:35:36.541Z,7.57
2018-12-30T14:38:04.985Z,7.55
2018-12-30T14:40:33.456Z,7.54
2018-12-30T14:43:01.900Z,7.51
2018-12-30T14:45:30.369Z,7.48
2018-12-30T14:47:58.807Z,7.45
2018-12-30T14:50:27.271Z,7.43
2018-12-30T14:52:55.719Z,7.41
2018-12-30T14:55:24.191Z,7.41
2018-12-30T14:57:52.633Z,7.40
2018-12-30T15:00:21.103Z,7.38
2018-12-30T15:02:49.549Z,7.36
2018-12-30T15:05:18.021Z,7.36
2018-12-30T15:07:46.457Z,7.36
2018-12-30T15:10:14.923Z,7.34
2018-12-30T15:12:43.365Z,7.32
2018-12-30T15:15:11.831Z,7.28
2018-12-30T15:17:40.278Z,7.28
2018-12-30T15:20:08.742Z,7.26
2018-12-30T15:22:37.189Z,7.23
2018-12-30T15:25:11.594Z,7.21
2018-12-30T15:27:36.192Z,7.17
2018-12-30T15:30:06.394Z,7.15
2018-12-30T15:32:34.838Z,7.13
2018-12-30T15:35:03.753Z,7.11
2018-12-30T15:37:32.226Z,7.08
2018-12-30T15:40:00.673Z,7.08
2018-12-30T15:42:29.140Z,7.06
2018-12-30T15:44:57.586Z,7.05
2018-12-30T15:47:26.056Z,7.04
2018-12-30T15:49:54.514Z,7.03
2018-12-30T15:52:22.986Z,7.02
2018-12-30T15:54:51.424Z,7.01
2018-12-30T15:57:19.893Z,6.89
2018-12-30T15:59:48.338Z,7.00
2018-12-30T16:02:16.805Z,7.01
2018-12-30T16:04:45.249Z,7.02
2018-12-30T16:07:13.716Z,7.02
2018-12-30T16:09:42.186Z,7.03
2018-12-30T16:12:10.629Z,7.02
2018-12-30T16:14:39.074Z,7.04
2018-12-30T16:17:07.535Z,7.06
2018-12-30T16:19:35.978Z,7.08
2018-12-30T16:22:04.444Z,7.10
2018-12-30T16:24:32.891Z,7.09
2018-12-30T16:27:01.357Z,7.10
2018-12-30T16:29:29.793Z,7.10
2018-12-30T16:31:58.269Z,7.09
2018-12-30T16:34:26.707Z,7.08
2018-12-30T16:36:55.173Z,7.05
2018-12-30T16:39:23.609Z,7.05
2018-12-30T16:41:52.083Z,7.02
2018-12-30T16:44:20.526Z,7.02
2018-12-30T16:46:49.000Z,6.99
2018-12-30T16:49:17.440Z,6.97
2018-12-30T16:51:45.913Z,6.96
2018-12-30T16:54:14.357Z,6.94
2018-12-30T16:56:42.803Z,6.93
2018-12-30T16:59:11.268Z,6.93
2018-12-30T17:01:39.708Z,6.95
2018-12-30T17:04:08.168Z,6.93
2018-12-30T17:06:36.616Z,6.93
2018-12-30T17:09:07.018Z,6.93
2018-12-30T17:11:35.463Z,6.96
2018-12-30T17:14:03.930Z,6.96
2018-12-30T17:16:32.410Z,6.94
2018-12-30T17:19:00.878Z,6.94
2018-12-30T17:21:29.329Z,6.94
2018-12-30T17:23:57.793Z,6.94
2018-12-30T17:26:26.238Z,6.93
2018-12-30T17:28:54.783Z,6.92
2018-12-30T17:31:23.230Z,6.93
2018-12-30T17:33:51.697Z,6.91
2018-12-30T17:36:20.138Z,6.90
2018-12-30T17:38:48.606Z,6.88
2018-12-30T17:41:17.046Z,6.87
2018-12-30T17:43:45.542Z,6.87
2018-12-30T17:46:18.200Z,6.88
2018-12-30T17:48:44.249Z,6.87
2018-12-30T17:51:12.699Z,6.89
2018-12-30T17:53:41.152Z,6.90
2018-12-30T17:56:09.594Z,6.90
2018-12-30T17:58:38.061Z,6.90
2018-12-30T18:01:06.501Z,6.92
2018-12-30T18:03:34.972Z,6.93
2018-12-30T18:06:03.417Z,6.93
2018-12-30T18:08:31.862Z,6.89
2018-12-30T18:11:00.328Z,6.88
2018-12-30T18:13:28.764Z,6.88
2018-12-30T18:15:57.228Z,6.88
2018-12-30T18:18:25.674Z,6.89
2018-12-30T18:20:54.141Z,6.87
2018-12-30T18:23:22.581Z,6.86
2018-12-30T18:25:58.459Z,6.84
2018-12-30T18:28:21.216Z,6.83
2018-12-30T18:30:49.685Z,6.83
2018-12-30T18:33:18.125Z,6.81
2018-12-30T18:35:46.602Z,6.82
2018-12-30T18:38:15.049Z,6.81
2018-12-30T18:40:43.510Z,6.80
2018-12-30T18:43:11.950Z,6.82
2018-12-30T18:45:40.418Z,6.81
2018-12-30T18:48:08.861Z,6.83
2018-12-30T18:50:37.328Z,6.83
2018-12-30T18:53:05.774Z,6.82
2018-12-30T18:55:34.246Z,6.83
2018-12-30T18:58:02.684Z,6.82
2018-12-30T19:00:31.154Z,6.81
2018-12-30T19:02:59.592Z,6.80
2018-12-30T19:05:28.055Z,6.78
2018-12-30T19:07:56.504Z,6.76
2018-12-30T19:10:24.986Z,6.73
2018-12-30T19:12:53.428Z,6.71
2018-12-30T19:15:21.868Z,6.69
2018-12-30T19:17:50.337Z,6.67
2018-12-30T19:20:18.789Z,6.65
2018-12-30T19:22:47.259Z,6.63
2018-12-30T19:25:15.699Z,6.63
2018-12-30T19:27:44.240Z,6.60
2018-12-30T19:30:12.682Z,6.58
2018-12-30T19:32:41.143Z,6.56
2018-12-30T19:35:09.588Z,6.51
2018-12-30T19:37:38.049Z,6.48
2018-12-30T19:40:09.433Z,6.43
2018-12-30T19:42:37.895Z,6.40
2018-12-30T19:45:07.181Z,6.36
2018-12-30T19:47:35.649Z,6.32
2018-12-30T19:50:05.211Z,6.28
2018-12-30T19:52:33.673Z,6.23
2018-12-30T19:55:02.120Z,6.17
2018-12-30T19:57:30.587Z,6.09
2018-12-30T19:59:59.086Z,6.02
2018-12-30T20:02:27.553Z,5.95
2018-12-30T20:04:55.993Z,5.88
2018-12-30T20:07:24.460Z,5.79
2018-12-30T20:09:52.907Z,5.72
2018-12-30T20:12:21.373Z,5.62
2018-12-30T20:14:49.883Z,5.54
2018-12-30T20:17:18.363Z,5.44
2018-12-30T20:19:46.804Z,5.36
2018-12-30T20:22:15.270Z,5.27
2018-12-30T20:24:43.715Z,5.19
2018-12-30T20:27:12.182Z,5.10
2018-12-30T20:29:40.627Z,5.03
2018-12-30T20:32:09.094Z,4.93
2018-12-30T20:34:37.542Z,4.86
2018-12-30T20:37:06.030Z,4.79
2018-12-30T20:39:34.557Z,4.73
2018-12-30T20:42:03.004Z,4.65
2018-12-30T20:44:31.469Z,4.59
2018-12-30T20:46:59.913Z,4.53
2018-12-30T20:49:28.383Z,4.47
2018-12-30T20:51:56.856Z,4.33
2018-12-30T20:54:25.332Z,4.32
2018-12-30T20:56:53.853Z,4.29
2018-12-30T20:59:22.317Z,4.18
2018-12-30T21:01:50.778Z,4.18
2018-12-30T21:04:19.245Z,4.17
2018-12-30T21:06:47.687Z,4.17
2018-12-30T21:09:16.156Z,4.11
2018-12-30T21:11:44.598Z,4.04
2018-12-30T21:14:13.065Z,4.04
2018-12-30T21:16:41.508Z,3.99
2018-12-30T21:19:10.029Z,3.97
2018-12-30T21:21:38.476Z,3.97
2018-12-30T21:24:06.937Z,3.90
2018-12-30T21:26:35.377Z,3.92
2018-12-30T21:29:03.844Z,3.92
2018-12-30T21:31:32.293Z,3.89
2018-12-30T21:34:00.810Z,3.67
2018-12-30T21:36:29.268Z,3.67
2018-12-30T21:38:57.713Z,3.83
2018-12-30T21:41:26.178Z,3.82
2018-12-30T21:43:54.624Z,3.77
2018-12-30T21:46:23.093Z,3.73
2018-12-30T21:48:51.533Z,3.73
2018-12-30T21:51:20.034Z,3.72
2018-12-30T21:53:48.483Z,3.70
2018-12-30T21:56:16.949Z,3.66
2018-12-30T21:58:45.393Z,3.66
2018-12-30T22:01:13.861Z,3.64
2018-12-30T22:03:42.310Z,3.61
2018-12-30T22:06:10.777Z,3.54
2018-12-30T22:08:39.329Z,3.54
2018-12-30T22:11:07.827Z,3.51
2018-12-30T22:13:36.274Z,3.49
2018-12-30T22:16:04.752Z,3.44
2018-12-30T22:18:33.193Z,3.40
2018-12-30T22:21:01.662Z,3.36
2018-12-30T22:23:30.146Z,3.36
2018-12-30T22:25:58.578Z,3.32
2018-12-30T22:28:27.023Z,3.32
2018-12-30T22:30:55.489Z,3.29
2018-12-30T22:33:23.939Z,3.25
2018-12-30T22:35:52.407Z,3.22
2018-12-30T22:38:20.857Z,3.20
2018-12-30T22:40:49.326Z,3.18
2018-12-30T22:43:17.765Z,3.15
2018-12-30T22:45:46.257Z,3.12
2018-12-30T22:48:14.693Z,3.11
2018-12-30T22:50:43.139Z,3.10
2018-12-30T22:53:11.606Z,3.09
2018-12-30T22:55:40.049Z,3.10
2018-12-30T22:58:08.518Z,3.12
2018-12-30T23:00:41.435Z,3.12
2018-12-30T23:03:09.909Z,3.13
2018-12-30T23:05:38.345Z,3.13
2018-12-30T23:08:06.814Z,3.15
2018-12-30T23:10:35.257Z,3.16
2018-12-30T23:13:03.725Z,3.19
2018-12-30T23:15:32.170Z,3.21
2018-12-30T23:18:00.636Z,3.25
2018-12-30T23:20:29.082Z,3.27
2018-12-30T23:22:57.572Z,3.30
2018-12-30T23:25:26.013Z,3.30
2018-12-30T23:27:54.485Z,3.33
2018-12-30T23:30:22.935Z,3.35
2018-12-30T23:32:51.401Z,3.38
2018-12-30T23:35:19.845Z,3.43
2018-12-30T23:37:48.311Z,3.44
2018-12-30T23:40:16.759Z,3.44
2018-12-30T23:42:45.234Z,3.46
2018-12-30T23:45:13.676Z,3.46
2018-12-30T23:47:42.146Z,3.49
2018-12-30T23:50:10.720Z,3.49
2018-12-30T23:52:39.265Z,3.54
2018-12-30T23:55:07.735Z,3.54
2018-12-30T23:57:36.178Z,3.55
